createdAt,value
2022-08-22T00:00:07.799Z,97403.06
2022-08-22T00:02:41.113Z,97401.66
2022-08-22T00:02:43.290Z,97351.69
2022-08-22T00:02:57.731Z,97371.97
2022-08-22T00:03:06.413Z,97370.81
2022-08-22T00:03:09.863Z,97379.66
2022-08-22T00:03:10.964Z,97347.47
2022-08-22T00:03:15.512Z,97397.38
2022-08-22T00:05:18.624Z,97399.69
2022-08-22T00:07:52.785Z,97401.19
2022-08-22T00:10:25.976Z,97402.00
2022-08-22T00:13:01.506Z,97399.09
2022-08-22T00:15:42.885Z,97402.56
2022-08-22T00:18:15.393Z,97398.94
2022-08-22T00:20:48.979Z,97391.22
2022-08-22T00:23:20.383Z,97402.47
2022-08-22T00:25:55.429Z,97400.25
2022-08-22T00:28:29.811Z,97408.50
2022-08-22T00:31:02.209Z,97399.56
2022-08-22T00:33:40.867Z,97404.53
2022-08-22T00:36:19.157Z,97396.09
2022-08-22T00:38:54.629Z,97396.78
2022-08-22T00:41:33.784Z,97396.28
2022-08-22T00:44:31.455Z,97396.78
2022-08-22T00:47:18.342Z,97393.72
2022-08-22T00:50:19.147Z,97388.00
2022-08-22T00:52:59.008Z,97396.09
2022-08-22T00:55:41.183Z,97403.50
2022-08-22T00:58:33.417Z,97404.50
2022-08-22T01:01:06.123Z,97400.31
2022-08-22T01:03:55.017Z,97397.56
2022-08-22T01:06:32.489Z,97397.22
2022-08-22T01:09:06.146Z,97407.59
2022-08-22T01:12:11.715Z,97409.59
2022-08-22T01:14:44.754Z,97399.81
2022-08-22T01:17:46.464Z,97405.72
2022-08-22T01:20:56.008Z,97398.22
2022-08-22T01:24:04.007Z,97405.66
2022-08-22T01:27:02.854Z,97406.63
2022-08-22T01:30:19.808Z,97406.34
2022-08-22T01:36:07.727Z,97411.56
2022-08-22T01:38:57.223Z,97402.50
2022-08-22T01:41:51.528Z,97402.13
2022-08-22T01:44:40.447Z,97405.47
2022-08-22T01:47:13.167Z,97404.34
2022-08-22T01:49:44.019Z,97406.00
2022-08-22T01:52:18.244Z,97404.84
2022-08-22T01:54:52.050Z,97401.25
2022-08-22T01:57:19.111Z,97411.22
2022-08-22T01:59:48.874Z,97411.56
2022-08-22T02:02:36.348Z,97407.94
2022-08-22T02:05:09.451Z,97412.53
2022-08-22T02:07:48.639Z,97424.63
2022-08-22T02:10:23.005Z,97423.41
2022-08-22T02:12:57.883Z,97420.31
2022-08-22T02:15:33.227Z,97418.84
2022-08-22T02:18:11.496Z,97425.50
2022-08-22T02:20:53.220Z,97418.84
2022-08-22T02:23:28.071Z,97418.34
2022-08-22T02:26:06.836Z,97422.94
2022-08-22T02:28:40.542Z,97416.72
2022-08-22T02:31:34.543Z,97420.31
2022-08-22T02:34:14.932Z,97419.94
2022-08-22T02:36:46.816Z,97416.69
2022-08-22T02:39:21.237Z,97421.25
2022-08-22T02:41:54.972Z,97420.06
2022-08-22T02:44:27.764Z,97422.38
2022-08-22T02:47:05.400Z,97416.03
2022-08-22T02:49:43.808Z,97415.53
2022-08-22T02:52:18.555Z,97421.38
2022-08-22T02:54:54.815Z,97408.63
2022-08-22T02:57:29.938Z,97422.13
2022-08-22T03:03:35.641Z,97414.78
2022-08-22T03:06:06.753Z,97419.81
2022-08-22T03:08:36.105Z,97416.88
2022-08-22T03:11:17.977Z,97417.06
2022-08-22T03:13:53.827Z,97421.03
2022-08-22T03:16:28.496Z,97421.31
2022-08-22T03:19:03.787Z,97416.75
2022-08-22T03:21:35.812Z,97416.06
2022-08-22T03:24:11.627Z,97416.19
2022-08-22T03:26:48.266Z,97415.69
2022-08-22T03:29:20.272Z,97415.81
2022-08-22T03:32:11.349Z,97414.53
2022-08-22T03:34:53.231Z,97416.88
2022-08-22T03:37:31.798Z,97413.78
2022-08-22T03:40:02.893Z,97419.78
2022-08-22T03:42:59.189Z,97415.38
2022-08-22T03:46:02.033Z,97421.66
2022-08-22T03:49:01.690Z,97426.06
2022-08-22T03:51:40.919Z,97423.88
2022-08-22T03:54:26.561Z,97422.88
2022-08-22T03:57:21.750Z,97424.69
2022-08-22T04:00:10.515Z,97423.63
2022-08-22T04:03:15.411Z,97426.63
2022-08-22T04:06:11.549Z,97420.34
2022-08-22T04:09:13.683Z,97421.03
2022-08-22T04:12:00.450Z,97424.75
2022-08-22T04:14:50.708Z,97425.03
2022-08-22T04:17:53.337Z,97430.28
2022-08-22T04:20:40.575Z,97425.22
2022-08-22T04:23:35.634Z,97424.22
2022-08-22T04:26:12.586Z,97420.22
2022-08-22T04:28:44.981Z,97423.81
2022-08-22T04:31:13.106Z,97428.22
2022-08-22T04:33:47.871Z,97434.84
2022-08-22T04:36:23.127Z,97432.31
2022-08-22T04:38:56.861Z,97440.22
2022-08-22T04:41:30.131Z,97430.88
2022-08-22T04:44:00.192Z,97436.81
2022-08-22T04:46:36.713Z,97437.50
2022-08-22T04:49:10.708Z,97438.31
2022-08-22T04:51:43.003Z,97443.88
2022-08-22T04:54:24.538Z,97447.44
2022-08-22T04:57:06.758Z,97447.81
2022-08-22T04:59:34.769Z,97445.03
2022-08-22T05:02:03.366Z,97450.84
2022-08-22T05:04:33.900Z,97453.03
2022-08-22T05:07:11.411Z,97456.53
2022-08-22T05:09:42.164Z,97458.13
2022-08-22T05:12:15.101Z,97452.72
2022-08-22T05:14:44.234Z,97453.41
2022-08-22T05:17:23.866Z,97461.03
2022-08-22T05:19:54.753Z,97458.34
2022-08-22T05:22:27.034Z,97462.06
2022-08-22T05:24:59.470Z,97462.94
2022-08-22T05:27:31.023Z,97458.16
2022-08-22T05:30:02.198Z,97461.59
2022-08-22T05:32:33.077Z,97462.94
2022-08-22T05:35:03.471Z,97459.28
2022-08-22T05:37:38.351Z,97462.28
2022-08-22T05:40:07.017Z,97466.78
2022-08-22T05:42:35.567Z,97461.28
2022-08-22T05:45:05.156Z,97457.94
2022-08-22T05:47:38.116Z,97466.44
2022-08-22T05:50:10.820Z,97471.56
2022-08-22T05:52:48.525Z,97474.56
2022-08-22T05:55:24.161Z,97469.88
2022-08-22T05:58:02.125Z,97473.66
2022-08-22T06:00:34.223Z,97477.09
2022-08-22T06:03:13.636Z,97467.44
2022-08-22T06:05:46.890Z,97470.53
2022-08-22T06:08:20.134Z,97475.88
2022-08-22T06:10:50.724Z,97471.59
2022-08-22T06:13:24.427Z,97472.50
2022-08-22T06:16:02.777Z,97472.56
2022-08-22T06:18:31.921Z,97474.94
2022-08-22T06:21:02.690Z,97476.50
2022-08-22T06:23:36.125Z,97475.69
2022-08-22T06:26:05.024Z,97475.81
2022-08-22T06:28:36.942Z,97474.31
2022-08-22T06:31:05.101Z,97475.44
2022-08-22T06:33:36.942Z,97471.09
2022-08-22T06:36:11.479Z,97468.44
2022-08-22T06:38:54.069Z,97466.06
2022-08-22T06:41:25.029Z,97470.47
2022-08-22T06:43:52.403Z,97466.94
2022-08-22T06:46:21.751Z,97465.25
2022-08-22T06:48:49.154Z,97480.59
2022-08-22T06:51:20.144Z,97479.78
2022-08-22T06:53:51.348Z,97476.19
2022-08-22T06:56:21.697Z,97479.69
2022-08-22T06:58:50.972Z,97482.31
2022-08-22T07:01:22.158Z,97483.16
2022-08-22T07:03:52.711Z,97484.28
2022-08-22T07:06:28.098Z,97477.22
2022-08-22T07:08:55.762Z,97484.78
2022-08-22T07:11:26.846Z,97480.72
2022-08-22T07:13:57.420Z,97479.47
2022-08-22T07:16:30.717Z,97481.06
2022-08-22T07:18:58.258Z,97482.66
2022-08-22T07:21:30.573Z,97474.53
2022-08-22T07:24:00.231Z,97477.28
2022-08-22T07:26:33.319Z,97479.00
2022-08-22T07:29:20.465Z,97480.53
2022-08-22T07:31:59.082Z,97485.78
2022-08-22T07:34:37.183Z,97478.72
2022-08-22T07:37:12.198Z,97477.91
2022-08-22T07:39:49.723Z,97483.25
2022-08-22T07:42:18.580Z,97474.63
2022-08-22T07:45:00.683Z,97477.06
2022-08-22T07:47:37.378Z,97483.81
2022-08-22T07:50:08.080Z,97474.81
2022-08-22T07:52:40.668Z,97473.88
2022-08-22T07:55:15.489Z,97473.28
2022-08-22T07:57:46.930Z,97463.34
2022-08-22T08:00:16.596Z,97470.00
2022-08-22T08:02:47.846Z,97465.13
2022-08-22T08:05:15.302Z,97480.47
2022-08-22T08:07:45.761Z,97479.34
2022-08-22T08:10:16.909Z,97472.81
2022-08-22T08:12:58.000Z,97474.53
2022-08-22T08:15:30.333Z,97469.75
2022-08-22T08:18:01.199Z,97466.66
2022-08-22T08:20:28.966Z,97470.09
2022-08-22T08:22:59.108Z,97473.22
2022-08-22T08:25:29.655Z,97467.72
2022-08-22T08:27:59.117Z,97467.13
2022-08-22T08:30:36.243Z,97468.25
2022-08-22T08:33:25.610Z,97459.50
2022-08-22T08:36:02.881Z,97458.47
2022-08-22T08:42:22.071Z,97453.19
2022-08-22T08:45:09.388Z,97456.63
2022-08-22T08:47:50.091Z,97446.44
2022-08-22T08:50:33.716Z,97439.56
2022-08-22T08:53:31.634Z,97457.50
2022-08-22T08:56:05.327Z,97444.06
2022-08-22T08:58:41.476Z,97447.03
2022-08-22T09:01:35.661Z,97443.81
2022-08-22T09:04:35.536Z,97445.56
2022-08-22T09:07:26.608Z,97446.41
2022-08-22T09:10:13.807Z,97441.19
2022-08-22T09:13:11.749Z,97441.63
2022-08-22T09:16:04.471Z,97441.78
2022-08-22T09:19:11.134Z,97438.50
2022-08-22T09:21:57.554Z,97439.28
2022-08-22T09:24:47.880Z,97448.22
2022-08-22T09:27:19.165Z,97440.84
2022-08-22T09:29:54.911Z,97450.06
2022-08-22T09:32:43.286Z,97449.38
2022-08-22T09:35:22.390Z,97454.75
2022-08-22T09:38:09.772Z,97455.41
2022-08-22T09:40:44.923Z,97448.91
2022-08-22T09:43:21.319Z,97453.72
2022-08-22T09:46:02.067Z,97445.97
2022-08-22T09:48:51.005Z,97457.41
2022-08-22T09:51:32.396Z,97450.72
2022-08-22T09:54:14.576Z,97437.00
2022-08-22T09:56:47.666Z,97444.03
2022-08-22T09:59:24.506Z,97444.34
2022-08-22T10:01:57.990Z,97437.06
2022-08-22T10:04:47.697Z,97446.88
2022-08-22T10:07:33.641Z,97446.69
2022-08-22T10:10:16.004Z,97439.25
2022-08-22T10:12:54.802Z,97448.25
2022-08-22T10:15:30.060Z,97445.91
2022-08-22T10:18:10.444Z,97446.81
2022-08-22T10:20:54.665Z,97441.97
2022-08-22T10:23:26.114Z,97440.78
2022-08-22T10:25:57.427Z,97438.97
2022-08-22T10:28:38.323Z,97446.50
2022-08-22T10:31:21.247Z,97435.97
2022-08-22T10:33:59.154Z,97440.19
2022-08-22T10:36:48.688Z,97438.22
2022-08-22T10:39:22.547Z,97444.28
2022-08-22T10:42:12.068Z,97444.41
2022-08-22T10:44:44.232Z,97448.81
2022-08-22T10:47:15.045Z,97449.78
2022-08-22T10:49:51.186Z,97447.41
2022-08-22T10:52:23.470Z,97449.06
2022-08-22T10:54:55.541Z,97449.97
2022-08-22T10:57:33.110Z,97444.91
2022-08-22T11:00:09.282Z,97440.19
2022-08-22T11:02:42.280Z,97443.41
2022-08-22T11:05:27.148Z,97446.28
2022-08-22T11:08:11.310Z,97445.06
2022-08-22T11:10:54.235Z,97445.47
2022-08-22T11:13:32.345Z,97451.78
2022-08-22T11:16:08.230Z,97452.63
2022-08-22T11:19:02.480Z,97452.09
2022-08-22T11:21:48.293Z,97456.94
2022-08-22T11:24:56.685Z,97461.78
2022-08-22T11:27:39.506Z,97452.78
2022-08-22T11:30:10.259Z,97447.44
2022-08-22T11:33:13.713Z,97453.66
2022-08-22T11:35:44.662Z,97448.75
2022-08-22T11:38:24.244Z,97450.34
2022-08-22T11:41:02.903Z,97449.50
2022-08-22T11:43:44.028Z,97443.06
2022-08-22T11:46:28.655Z,97443.88
2022-08-22T11:49:33.834Z,97451.06
2022-08-22T11:52:08.610Z,97448.78
2022-08-22T11:54:52.972Z,97453.56
2022-08-22T11:57:29.479Z,97438.25
2022-08-22T12:00:07.213Z,97436.91
2022-08-22T12:02:49.188Z,97444.69
2022-08-22T12:05:24.448Z,97433.56
2022-08-22T12:07:59.007Z,97443.97
2022-08-22T12:10:32.241Z,97437.16
2022-08-22T12:13:04.804Z,97436.97
2022-08-22T12:15:42.323Z,97435.41
2022-08-22T12:18:25.113Z,97426.78
2022-08-22T12:23:56.054Z,97430.81
2022-08-22T12:26:33.178Z,97417.47
2022-08-22T12:29:20.038Z,97423.94
2022-08-22T12:32:29.175Z,97418.72
2022-08-22T12:35:13.467Z,97418.81
2022-08-22T12:37:52.383Z,97420.38
2022-08-22T12:40:29.458Z,97409.00
2022-08-22T12:43:25.918Z,97419.56
2022-08-22T12:46:12.832Z,97405.03
2022-08-22T12:48:54.700Z,97410.88
2022-08-22T12:51:29.425Z,97401.69
2022-08-22T12:54:35.619Z,97392.13
2022-08-22T12:57:24.453Z,97393.00
2022-08-22T12:59:55.241Z,97384.81
2022-08-22T13:02:28.050Z,97378.06
2022-08-22T13:04:59.157Z,97384.59
2022-08-22T13:07:29.060Z,97379.78
2022-08-22T13:10:00.362Z,97366.81
2022-08-22T13:12:30.886Z,97363.13
2022-08-22T13:15:01.891Z,97363.94
2022-08-22T13:17:29.292Z,97362.31
2022-08-22T13:20:08.120Z,97365.53
2022-08-22T13:22:38.852Z,97359.16
2022-08-22T13:25:14.140Z,97366.81
2022-08-22T13:27:50.979Z,97357.53
2022-08-22T13:30:21.347Z,97356.75
2022-08-22T13:32:50.901Z,97365.50
2022-08-22T13:35:24.442Z,97348.13
2022-08-22T13:37:55.621Z,97352.63
2022-08-22T13:40:26.226Z,97347.03
2022-08-22T13:43:02.532Z,97348.66
2022-08-22T13:45:31.835Z,97356.72
2022-08-22T13:48:03.525Z,97356.75
2022-08-22T13:50:52.931Z,97352.69
2022-08-22T13:53:28.728Z,97354.31
2022-08-22T13:56:02.982Z,97343.78
2022-08-22T13:58:37.971Z,97340.50
2022-08-22T14:01:18.525Z,97339.38
2022-08-22T14:03:49.837Z,97342.59
2022-08-22T14:06:51.718Z,97334.53
2022-08-22T14:09:32.328Z,97346.25
2022-08-22T14:12:12.142Z,97338.81
2022-08-22T14:14:41.526Z,97336.47
2022-08-22T14:17:15.231Z,97347.75
2022-08-22T14:19:53.201Z,97351.03
2022-08-22T14:22:31.862Z,97349.78
2022-08-22T14:25:04.953Z,97350.53
2022-08-22T14:27:37.223Z,97352.19
2022-08-22T14:30:14.611Z,97352.59
2022-08-22T14:32:46.934Z,97341.16
2022-08-22T14:35:23.487Z,97349.22
2022-08-22T14:38:17.354Z,97348.41
2022-08-22T14:40:45.288Z,97341.09
2022-08-22T14:43:22.525Z,97350.34
2022-08-22T14:45:56.502Z,97348.69
2022-08-22T14:48:30.871Z,97347.03
2022-08-22T14:51:01.355Z,97341.75
2022-08-22T14:53:33.926Z,97345.44
2022-08-22T14:56:05.895Z,97350.69
2022-08-22T14:58:36.407Z,97347.41
2022-08-22T15:01:10.425Z,97353.06
2022-08-22T15:03:38.108Z,97349.75
2022-08-22T15:06:09.142Z,97357.03
2022-08-22T15:08:49.230Z,97349.31
2022-08-22T15:11:22.732Z,97352.03
2022-08-22T15:13:55.245Z,97349.13
2022-08-22T15:16:27.617Z,97353.72
2022-08-22T15:18:54.294Z,97350.00
2022-08-22T15:21:24.782Z,97346.47
2022-08-22T15:23:55.314Z,97351.69
2022-08-22T15:26:28.410Z,97348.66
2022-08-22T15:29:06.099Z,97343.41
2022-08-22T15:31:33.633Z,97353.47
2022-08-22T15:34:12.832Z,97349.50
2022-08-22T15:37:00.212Z,97349.28
2022-08-22T15:39:57.201Z,97349.75
2022-08-22T15:42:26.974Z,97360.25
2022-08-22T15:44:55.039Z,97349.09
2022-08-22T15:47:31.531Z,97360.19
2022-08-22T15:50:05.466Z,97357.91
2022-08-22T15:52:35.784Z,97359.53
2022-08-22T15:55:18.053Z,97353.19
2022-08-22T15:57:51.840Z,97358.94
2022-08-22T16:00:28.982Z,97363.69
2022-08-22T16:03:01.995Z,97358.22
2022-08-22T16:05:41.344Z,97359.00
2022-08-22T16:08:11.895Z,97358.34
2022-08-22T16:10:43.249Z,97355.88
2022-08-22T16:13:33.703Z,97355.06
2022-08-22T16:16:04.800Z,97348.19
2022-08-22T16:19:15.331Z,97351.88
2022-08-22T16:22:13.737Z,97361.53
2022-08-22T16:25:04.697Z,97360.50
2022-08-22T16:27:33.867Z,97367.75
2022-08-22T16:30:07.859Z,97370.44
2022-08-22T16:32:34.943Z,97366.66
2022-08-22T16:35:01.635Z,97363.03
2022-08-22T16:37:49.440Z,97372.72
2022-08-22T16:40:23.926Z,97370.84
2022-08-22T16:43:11.530Z,97368.28
2022-08-22T16:45:40.598Z,97375.03
2022-08-22T16:48:25.529Z,97376.59
2022-08-22T16:51:12.989Z,97383.63
2022-08-22T16:54:03.665Z,97384.84
2022-08-22T16:56:37.550Z,97384.41
2022-08-22T16:59:24.153Z,97376.41
2022-08-22T17:02:10.413Z,97380.06
2022-08-22T17:04:49.267Z,97381.88
2022-08-22T17:07:29.576Z,97382.53
2022-08-22T17:10:11.634Z,97387.94
2022-08-22T17:12:52.013Z,97392.75
2022-08-22T17:15:31.333Z,97386.19
2022-08-22T17:18:19.283Z,97393.72
2022-08-22T17:20:49.914Z,97397.31
2022-08-22T17:23:29.385Z,97398.78
2022-08-22T17:26:06.330Z,97404.50
2022-08-22T17:28:39.541Z,97401.06
2022-08-22T17:31:15.278Z,97403.13
2022-08-22T17:34:04.430Z,97398.47
2022-08-22T17:36:50.839Z,97405.47
2022-08-22T17:39:33.699Z,97404.91
2022-08-22T17:42:20.960Z,97412.53
2022-08-22T17:44:58.652Z,97408.19
2022-08-22T17:47:33.158Z,97400.00
2022-08-22T17:50:05.365Z,97407.25
2022-08-22T17:52:37.577Z,97415.56
2022-08-22T17:55:14.904Z,97406.63
2022-08-22T17:57:51.049Z,97415.84
2022-08-22T18:00:24.955Z,97414.16
2022-08-22T18:02:58.066Z,97419.41
2022-08-22T18:05:29.364Z,97417.47
2022-08-22T18:08:04.963Z,97423.09
2022-08-22T18:10:45.354Z,97425.41
2022-08-22T18:13:30.803Z,97420.88
2022-08-22T18:16:01.775Z,97427.06
2022-08-22T18:18:35.028Z,97427.25
2022-08-22T18:21:06.368Z,97419.06
2022-08-22T18:23:40.201Z,97424.41
2022-08-22T18:26:20.339Z,97426.34
2022-08-22T18:28:53.144Z,97427.72
2022-08-22T18:31:36.394Z,97425.56
2022-08-22T18:34:18.184Z,97440.69
2022-08-22T18:36:54.901Z,97441.41
2022-08-22T18:39:25.881Z,97434.72
2022-08-22T18:42:02.702Z,97440.34
2022-08-22T18:44:33.284Z,97444.41
2022-08-22T18:47:09.703Z,97440.59
2022-08-22T18:49:41.691Z,97446.00
2022-08-22T18:52:15.983Z,97450.84
2022-08-22T18:54:52.461Z,97447.16
2022-08-22T18:57:42.632Z,97452.56
2022-08-22T19:00:13.079Z,97451.28
2022-08-22T19:03:15.055Z,97449.84
2022-08-22T19:06:10.534Z,97452.81
2022-08-22T19:08:54.106Z,97452.97
2022-08-22T19:11:40.872Z,97455.69
2022-08-22T19:14:29.286Z,97461.78
2022-08-22T19:17:15.553Z,97469.59
2022-08-22T19:19:54.100Z,97455.94
2022-08-22T19:22:25.619Z,97467.06
2022-08-22T19:25:17.936Z,97455.44
2022-08-22T19:28:07.040Z,97471.16
2022-08-22T19:30:44.642Z,97473.53
2022-08-22T19:33:16.518Z,97472.00
2022-08-22T19:36:03.070Z,97465.97
2022-08-22T19:38:53.517Z,97475.44
2022-08-22T19:41:49.081Z,97470.19
2022-08-22T19:44:32.462Z,97475.44
2022-08-22T19:47:07.087Z,97469.25
2022-08-22T19:49:36.758Z,97483.94
2022-08-22T19:52:13.424Z,97475.81
2022-08-22T19:54:48.151Z,97477.19
2022-08-22T19:57:20.953Z,97486.97
2022-08-22T19:59:57.242Z,97473.00
2022-08-22T20:02:33.194Z,97472.53
2022-08-22T20:05:12.641Z,97474.03
2022-08-22T20:07:52.863Z,97472.91
2022-08-22T20:10:30.886Z,97484.41
2022-08-22T20:13:02.807Z,97473.19
2022-08-22T20:15:31.583Z,97476.50
2022-08-22T20:20:58.871Z,97478.06
2022-08-22T20:23:29.855Z,97471.44
2022-08-22T20:25:57.767Z,97475.28
2022-08-22T20:28:44.436Z,97483.41
2022-08-22T20:31:19.767Z,97480.28
2022-08-22T20:34:11.717Z,97476.28
2022-08-22T20:36:42.753Z,97479.19
2022-08-22T20:39:16.311Z,97472.66
2022-08-22T20:41:49.152Z,97468.25
2022-08-22T20:44:20.409Z,97480.59
2022-08-22T20:46:55.195Z,97474.84
2022-08-22T20:49:26.829Z,97480.31
2022-08-22T20:51:55.483Z,97475.44
2022-08-22T20:54:24.206Z,97474.06
2022-08-22T20:56:53.886Z,97479.59
2022-08-22T20:59:33.356Z,97480.78
2022-08-22T21:02:07.289Z,97473.31
2022-08-22T21:04:43.005Z,97471.41
2022-08-22T21:07:10.409Z,97470.19
2022-08-22T21:09:36.983Z,97466.00
2022-08-22T21:12:04.359Z,97472.94
2022-08-22T21:14:33.566Z,97468.78
2022-08-22T21:17:22.908Z,97469.38
2022-08-22T21:19:51.015Z,97477.28
2022-08-22T21:22:24.466Z,97470.41
2022-08-22T21:24:55.468Z,97476.19
2022-08-22T21:27:28.279Z,97467.91
2022-08-22T21:29:55.659Z,97467.44
2022-08-22T21:32:26.824Z,97466.84
2022-08-22T21:34:54.929Z,97472.28
2022-08-22T21:37:29.186Z,97466.53
2022-08-22T21:40:02.113Z,97467.53
2022-08-22T21:42:32.801Z,97471.44
2022-08-22T21:45:01.685Z,97469.13
2022-08-22T21:47:31.858Z,97465.56
2022-08-22T21:50:03.504Z,97465.91
2022-08-22T21:52:32.413Z,97462.03
2022-08-22T21:55:13.104Z,97459.59
2022-08-22T21:57:39.628Z,97465.28
2022-08-22T22:00:10.037Z,97456.13
2022-08-22T22:02:39.956Z,97456.44
2022-08-22T22:05:11.500Z,97456.19
2022-08-22T22:07:39.913Z,97463.22
2022-08-22T22:10:09.807Z,97463.44
2022-08-22T22:12:38.929Z,97461.75
2022-08-22T22:15:06.337Z,97456.19
2022-08-22T22:17:32.889Z,97460.97
2022-08-22T22:19:59.538Z,97466.59
2022-08-22T22:22:27.448Z,97466.31
2022-08-22T22:24:53.961Z,97462.03
2022-08-22T22:27:20.526Z,97466.59
2022-08-22T22:29:47.059Z,97464.81
2022-08-22T22:32:13.623Z,97466.31
2022-08-22T22:34:40.171Z,97475.75
2022-08-22T22:37:09.154Z,97466.44
2022-08-22T22:39:37.165Z,97468.13
2022-08-22T22:42:04.782Z,97467.16
2022-08-22T22:44:31.291Z,97459.81
2022-08-22T22:46:58.861Z,97459.03
2022-08-22T22:49:25.536Z,97456.56
2022-08-22T22:51:52.067Z,97464.31
2022-08-22T22:54:18.797Z,97457.16
2022-08-22T22:56:55.285Z,97462.03
2022-08-22T22:59:25.415Z,97457.81
2022-08-22T23:02:04.905Z,97457.81
2022-08-22T23:04:32.881Z,97456.53
2022-08-22T23:06:59.705Z,97447.34
2022-08-22T23:09:37.903Z,97454.88
2022-08-22T23:12:08.028Z,97448.50
2022-08-22T23:14:35.209Z,97456.03
2022-08-22T23:17:02.613Z,97457.84
2022-08-22T23:19:29.635Z,97453.63
2022-08-22T23:21:57.807Z,97455.72
2022-08-22T23:24:25.892Z,97458.66
2022-08-22T23:26:52.497Z,97458.50
2022-08-22T23:29:20.430Z,97464.19
2022-08-22T23:31:50.100Z,97463.56
2022-08-22T23:34:18.834Z,97464.53
2022-08-22T23:36:46.737Z,97467.81
2022-08-22T23:39:14.816Z,97458.34
2022-08-22T23:41:41.404Z,97462.41
2022-08-22T23:44:13.482Z,97457.84
2022-08-22T23:46:42.532Z,97465.22
2022-08-22T23:49:09.832Z,97468.69
2022-08-22T23:51:36.537Z,97461.66
2022-08-22T23:54:03.698Z,97455.78
2022-08-22T23:56:32.503Z,97445.63
2022-08-22T23:59:00.759Z,97451.69
